createdAt,value
2019-01-11T00:01:12.431Z,-1.90
2019-01-11T00:03:34.701Z,-1.80
2019-01-11T00:05:57.107Z,-1.80
2019-01-11T00:08:19.446Z,-1.70
2019-01-11T00:10:41.932Z,-1.70
2019-01-11T00:13:04.672Z,-1.70
2019-01-11T00:15:27.182Z,-1.60
2019-01-11T00:17:49.570Z,-1.60
2019-01-11T00:20:12.260Z,-1.60
2019-01-11T00:22:35.897Z,-1.60
2019-01-11T00:24:58.572Z,-1.60
2019-01-11T00:27:21.080Z,-1.60
2019-01-11T00:29:44.148Z,-1.50
2019-01-11T00:32:06.975Z,-1.50
2019-01-11T00:34:29.436Z,-1.50
2019-01-11T00:36:51.707Z,-1.60
2019-01-11T00:39:13.964Z,-1.70
2019-01-11T00:41:36.255Z,-1.70
2019-01-11T00:43:58.467Z,-1.80
2019-01-11T00:46:20.679Z,-1.80
2019-01-11T00:48:42.968Z,-1.80
2019-01-11T00:51:05.215Z,-1.70
2019-01-11T00:53:27.451Z,-1.70
2019-01-11T00:55:49.740Z,-1.70
2019-01-11T00:58:11.960Z,-1.70
2019-01-11T01:00:34.320Z,-1.60
2019-01-11T01:02:56.588Z,-1.60
2019-01-11T01:05:18.871Z,-1.50
2019-01-11T01:07:41.128Z,-1.50
2019-01-11T01:10:04.683Z,-1.50
2019-01-11T01:12:26.920Z,-1.50
2019-01-11T01:14:49.204Z,-1.60
2019-01-11T01:17:11.460Z,-1.60
2019-01-11T01:19:33.723Z,-1.50
2019-01-11T01:21:55.978Z,-1.60
2019-01-11T01:24:18.177Z,-1.50
2019-01-11T01:26:40.415Z,-1.50
2019-01-11T01:29:02.646Z,-1.50
2019-01-11T01:31:24.900Z,-1.50
2019-01-11T01:33:47.127Z,-1.60
2019-01-11T01:36:09.381Z,-1.70
2019-01-11T01:38:31.600Z,-1.80
2019-01-11T01:40:53.847Z,-1.90
2019-01-11T01:43:16.095Z,-1.90
2019-01-11T01:45:38.384Z,-1.90
2019-01-11T01:48:00.616Z,-2.00
2019-01-11T01:50:22.876Z,-2.00
2019-01-11T01:52:45.111Z,-2.10
2019-01-11T01:55:08.568Z,-2.10
2019-01-11T01:57:30.853Z,-2.20
2019-01-11T01:59:53.093Z,-2.20
2019-01-11T02:02:15.375Z,-2.30
2019-01-11T02:04:37.620Z,-2.40
2019-01-11T02:06:59.889Z,-2.50
2019-01-11T02:09:22.155Z,-2.50
2019-01-11T02:11:44.452Z,-2.60
2019-01-11T02:14:06.760Z,-2.70
2019-01-11T02:16:28.989Z,-2.70
2019-01-11T02:18:51.236Z,-2.70
2019-01-11T02:21:13.521Z,-2.80
2019-01-11T02:23:35.786Z,-2.80
2019-01-11T02:25:58.023Z,-2.80
2019-01-11T02:28:20.242Z,-2.80
2019-01-11T02:30:42.495Z,-2.90
2019-01-11T02:33:04.734Z,-2.80
2019-01-11T02:35:26.992Z,-2.90
2019-01-11T02:37:49.285Z,-2.80
2019-01-11T02:40:11.987Z,-2.80
2019-01-11T02:42:34.210Z,-2.80
2019-01-11T02:44:56.445Z,-2.80
2019-01-11T02:47:18.710Z,-2.80
2019-01-11T02:49:40.971Z,-2.70
2019-01-11T02:52:03.295Z,-2.70
2019-01-11T02:54:25.529Z,-2.60
2019-01-11T02:56:47.857Z,-2.60
2019-01-11T02:59:10.152Z,-2.50
2019-01-11T03:01:32.360Z,-2.50
2019-01-11T03:03:54.629Z,-2.40
2019-01-11T03:06:16.935Z,-2.40
2019-01-11T03:08:39.221Z,-2.30
2019-01-11T03:11:01.468Z,-2.30
2019-01-11T03:13:23.796Z,-2.20
2019-01-11T03:15:46.083Z,-2.10
2019-01-11T03:18:08.362Z,-2.10
2019-01-11T03:20:30.674Z,-2.10
2019-01-11T03:22:52.939Z,-2.00
2019-01-11T03:25:15.263Z,-2.00
2019-01-11T03:27:37.571Z,-2.00
2019-01-11T03:29:59.812Z,-2.00
2019-01-11T03:32:22.064Z,-2.00
2019-01-11T03:34:48.911Z,-2.10
2019-01-11T03:37:11.370Z,-2.10
2019-01-11T03:39:33.707Z,-2.10
2019-01-11T03:42:14.687Z,-2.10
2019-01-11T03:44:37.185Z,-2.10
2019-01-11T03:46:59.488Z,-2.10
2019-01-11T03:49:21.716Z,-2.10
2019-01-11T03:51:43.994Z,-2.10
2019-01-11T03:54:06.329Z,-2.10
2019-01-11T03:56:28.584Z,-2.10
2019-01-11T03:58:50.820Z,-2.10
2019-01-11T04:01:13.145Z,-2.10
2019-01-11T04:03:35.411Z,-2.10
2019-01-11T04:05:57.646Z,-2.00
2019-01-11T04:08:20.151Z,-2.00
2019-01-11T04:10:42.434Z,-2.00
2019-01-11T04:13:04.704Z,-2.00
2019-01-11T04:15:26.981Z,-1.90
2019-01-11T04:17:55.336Z,-1.90
2019-01-11T04:20:17.627Z,-1.90
2019-01-11T04:22:44.472Z,-1.80
2019-01-11T04:25:08.012Z,-1.80
2019-01-11T04:27:30.325Z,-1.80
2019-01-11T04:29:52.599Z,-1.80
2019-01-11T04:32:14.827Z,-1.80
2019-01-11T04:34:37.072Z,-1.80
2019-01-11T04:36:59.397Z,-1.70
2019-01-11T04:39:21.733Z,-1.70
2019-01-11T04:41:44.066Z,-1.70
2019-01-11T04:44:06.229Z,-1.70
2019-01-11T04:46:28.478Z,-1.70
2019-01-11T04:48:50.975Z,-1.70
2019-01-11T04:51:13.214Z,-1.70
2019-01-11T04:53:35.479Z,-1.70
2019-01-11T04:55:57.781Z,-1.70
2019-01-11T04:58:20.045Z,-1.70
2019-01-11T05:00:42.315Z,-1.70
2019-01-11T05:03:04.609Z,-1.60
2019-01-11T05:05:26.916Z,-1.60
2019-01-11T05:07:49.165Z,-1.60
2019-01-11T05:10:12.588Z,-1.60
2019-01-11T05:12:34.861Z,-1.60
2019-01-11T05:14:57.099Z,-1.60
2019-01-11T05:17:19.351Z,-1.60
2019-01-11T05:19:41.628Z,-1.60
2019-01-11T05:22:03.922Z,-1.60
2019-01-11T05:24:26.268Z,-1.60
2019-01-11T05:26:48.532Z,-1.50
2019-01-11T05:29:10.847Z,-1.50
2019-01-11T05:31:33.071Z,-1.50
2019-01-11T05:33:55.381Z,-1.50
2019-01-11T05:36:17.631Z,-1.50
2019-01-11T05:38:39.960Z,-1.50
2019-01-11T05:41:02.195Z,-1.50
2019-01-11T05:43:24.491Z,-1.50
2019-01-11T05:45:46.766Z,-1.50
2019-01-11T05:48:09.027Z,-1.50
2019-01-11T05:50:31.276Z,-1.50
2019-01-11T05:52:53.659Z,-1.60
2019-01-11T05:55:20.526Z,-1.60
2019-01-11T05:57:47.445Z,-1.60
2019-01-11T06:00:09.800Z,-1.60
2019-01-11T06:02:32.043Z,-1.50
2019-01-11T06:05:03.061Z,-1.50
2019-01-11T06:07:32.384Z,-1.50
2019-01-11T06:09:54.669Z,-1.50
2019-01-11T06:12:16.955Z,-1.50
2019-01-11T06:14:39.177Z,-1.50
2019-01-11T06:17:01.440Z,-1.50
2019-01-11T06:19:23.716Z,-1.50
2019-01-11T06:21:45.995Z,-1.50
2019-01-11T06:24:08.249Z,-1.50
2019-01-11T06:26:30.627Z,-1.40
2019-01-11T06:28:52.873Z,-1.40
2019-01-11T06:31:15.159Z,-1.40
2019-01-11T06:33:37.444Z,-1.40
2019-01-11T06:35:59.967Z,-1.40
2019-01-11T06:38:22.319Z,-1.40
2019-01-11T06:40:44.600Z,-1.40
2019-01-11T06:43:06.845Z,-1.40
2019-01-11T06:45:29.327Z,-1.40
2019-01-11T06:47:51.580Z,-1.40
2019-01-11T06:50:14.051Z,-1.40
2019-01-11T06:52:36.686Z,-1.40
2019-01-11T06:54:59.057Z,-1.40
2019-01-11T06:57:21.517Z,-1.40
2019-01-11T06:59:44.282Z,-1.40
2019-01-11T07:02:06.659Z,-1.40
2019-01-11T07:04:29.112Z,-1.40
2019-01-11T07:06:51.391Z,-1.40
2019-01-11T07:09:13.606Z,-1.40
2019-01-11T07:11:36.199Z,-1.40
2019-01-11T07:13:58.553Z,-1.40
2019-01-11T07:16:20.795Z,-1.40
2019-01-11T07:18:43.047Z,-1.40
2019-01-11T07:21:05.375Z,-1.40
2019-01-11T07:23:27.725Z,-1.40
2019-01-11T07:25:50.131Z,-1.40
2019-01-11T07:28:13.725Z,-1.40
2019-01-11T07:30:43.286Z,-1.40
2019-01-11T07:33:05.640Z,-1.40
2019-01-11T07:35:32.485Z,-1.40
2019-01-11T07:37:54.783Z,-1.40
2019-01-11T07:40:17.069Z,-1.40
2019-01-11T07:42:39.423Z,-1.30
2019-01-11T07:45:01.754Z,-1.30
2019-01-11T07:47:24.224Z,-1.30
2019-01-11T07:49:46.376Z,-1.30
2019-01-11T07:52:08.642Z,-1.30
2019-01-11T07:54:30.907Z,-1.30
2019-01-11T07:56:53.571Z,-1.20
2019-01-11T07:59:15.983Z,-1.20
2019-01-11T08:01:38.284Z,-1.20
2019-01-11T08:04:00.580Z,-1.20
2019-01-11T08:06:22.815Z,-1.20
2019-01-11T08:08:45.105Z,-1.20
2019-01-11T08:11:07.413Z,-1.20
2019-01-11T08:13:29.732Z,-1.20
2019-01-11T08:15:51.968Z,-1.20
2019-01-11T08:18:14.241Z,-1.20
2019-01-11T08:20:36.488Z,-1.20
2019-01-11T08:22:58.713Z,-1.20
2019-01-11T08:25:21.014Z,-1.20
2019-01-11T08:27:43.395Z,-1.20
2019-01-11T08:30:08.603Z,-1.20
2019-01-11T08:32:30.866Z,-1.20
2019-01-11T08:34:53.124Z,-1.20
2019-01-11T08:37:15.428Z,-1.20
2019-01-11T08:39:37.738Z,-1.20
2019-01-11T08:42:00.030Z,-1.20
2019-01-11T08:44:22.488Z,-1.20
2019-01-11T08:46:44.731Z,-1.10
2019-01-11T08:49:07.027Z,-1.10
2019-01-11T08:51:29.291Z,-1.10
2019-01-11T08:53:51.546Z,-1.10
2019-01-11T08:56:15.448Z,-1.10
2019-01-11T08:58:37.726Z,-1.10
2019-01-11T09:01:00.009Z,-1.10
2019-01-11T09:03:22.332Z,-1.00
2019-01-11T09:05:44.637Z,-1.00
2019-01-11T09:08:06.921Z,-1.00
2019-01-11T09:10:29.255Z,-0.90
2019-01-11T09:12:51.575Z,-0.90
2019-01-11T09:15:14.128Z,-0.90
2019-01-11T09:17:41.064Z,-0.90
2019-01-11T09:20:04.123Z,-0.80
2019-01-11T09:22:26.420Z,-0.80
2019-01-11T09:24:48.692Z,-0.80
2019-01-11T09:27:11.030Z,-0.80
2019-01-11T09:29:33.321Z,-0.80
2019-01-11T09:31:55.679Z,-0.80
2019-01-11T09:34:17.951Z,-0.80
2019-01-11T09:43:31.799Z,-0.70
2019-01-11T09:45:54.059Z,-0.60
2019-01-11T09:48:16.972Z,-0.70
2019-01-11T09:50:39.759Z,-0.60
2019-01-11T09:53:02.263Z,-0.60
2019-01-11T09:55:24.865Z,-0.60
2019-01-11T09:57:47.427Z,-0.50
2019-01-11T10:00:13.100Z,-0.50
2019-01-11T10:02:36.886Z,-0.50
2019-01-11T10:04:59.179Z,-0.50
2019-01-11T10:07:25.255Z,-0.50
2019-01-11T10:09:47.539Z,-0.40
2019-01-11T10:12:09.909Z,-0.40
2019-01-11T10:14:32.152Z,-0.40
2019-01-11T10:16:54.383Z,-0.40
2019-01-11T10:19:16.714Z,-0.40
2019-01-11T10:21:39.033Z,-0.40
2019-01-11T10:24:01.354Z,-0.40
2019-01-11T10:26:23.860Z,-0.40
2019-01-11T10:28:46.323Z,-0.30
2019-01-11T10:31:08.663Z,-0.30
2019-01-11T10:33:36.212Z,-0.30
2019-01-11T10:35:53.336Z,-0.30
2019-01-11T10:38:15.727Z,-0.30
2019-01-11T10:40:38.171Z,-0.30
2019-01-11T10:43:00.466Z,-0.20
2019-01-11T10:45:22.773Z,-0.20
2019-01-11T10:47:45.078Z,-0.20
2019-01-11T10:50:09.822Z,-0.20
2019-01-11T10:52:32.080Z,-0.20
2019-01-11T10:54:54.360Z,-0.10
2019-01-11T10:57:16.687Z,-0.10
2019-01-11T10:59:38.970Z,-0.10
2019-01-11T11:02:02.382Z,-0.10
2019-01-11T11:04:24.976Z,-0.10
2019-01-11T11:06:47.352Z,-0.10
2019-01-11T11:09:09.867Z,-0.10
2019-01-11T11:11:32.375Z,-0.10
2019-01-11T11:13:54.810Z,-0.10
2019-01-11T11:16:17.302Z,-0.10
2019-01-11T11:18:39.606Z,0.00
2019-01-11T11:21:02.014Z,-0.10
2019-01-11T11:23:24.251Z,-0.10
2019-01-11T11:25:46.548Z,-0.10
2019-01-11T11:28:08.815Z,-0.10
2019-01-11T11:30:31.123Z,-0.10
2019-01-11T11:32:56.344Z,-0.10
2019-01-11T11:35:18.678Z,-0.10
2019-01-11T11:37:40.943Z,-0.10
2019-01-11T11:40:03.351Z,-0.10
2019-01-11T11:42:25.681Z,-0.10
2019-01-11T11:44:47.982Z,0.00
2019-01-11T11:47:10.568Z,0.00
2019-01-11T11:49:32.924Z,0.00
2019-01-11T11:51:55.235Z,-0.10
2019-01-11T11:54:17.649Z,-0.10
2019-01-11T11:56:40.083Z,-0.10
2019-01-11T11:59:02.378Z,0.00
2019-01-11T12:01:24.673Z,-0.10
2019-01-11T12:03:46.997Z,0.00
2019-01-11T12:06:10.124Z,0.00
2019-01-11T12:08:32.471Z,0.00
2019-01-11T12:10:54.711Z,0.00
2019-01-11T12:13:17.084Z,0.00
2019-01-11T12:15:39.387Z,0.00
2019-01-11T12:18:01.621Z,0.00
2019-01-11T12:20:28.059Z,0.00
2019-01-11T12:22:50.371Z,0.00
2019-01-11T12:25:12.695Z,-0.10
2019-01-11T12:27:34.947Z,-0.10
2019-01-11T12:29:57.216Z,0.00
2019-01-11T12:32:19.782Z,0.00
2019-01-11T12:34:41.812Z,0.00
2019-01-11T12:37:04.040Z,0.00
2019-01-11T12:39:26.260Z,0.00
2019-01-11T12:41:48.545Z,-0.10
2019-01-11T12:44:10.811Z,-0.10
2019-01-11T12:46:33.025Z,-0.10
2019-01-11T12:48:55.303Z,-0.10
2019-01-11T12:51:17.557Z,-0.10
2019-01-11T12:53:39.904Z,-0.10
2019-01-11T12:56:02.263Z,-0.20
2019-01-11T12:58:24.543Z,-0.20
2019-01-11T13:00:46.842Z,-0.20
2019-01-11T13:03:09.126Z,-0.20
2019-01-11T13:05:31.474Z,-0.30
2019-01-11T13:07:53.787Z,-0.30
2019-01-11T13:10:17.505Z,-0.30
2019-01-11T13:12:40.042Z,-0.30
2019-01-11T13:15:02.558Z,-0.30
2019-01-11T13:17:24.900Z,-0.30
2019-01-11T13:19:47.247Z,-0.30
2019-01-11T13:22:09.612Z,-0.30
2019-01-11T13:24:32.055Z,-0.30
2019-01-11T13:26:54.404Z,-0.30
2019-01-11T13:29:16.755Z,-0.30
2019-01-11T13:31:39.313Z,-0.30
2019-01-11T13:34:01.678Z,-0.30
2019-01-11T13:36:24.069Z,-0.30
2019-01-11T13:38:46.324Z,-0.30
2019-01-11T13:41:08.580Z,-0.30
2019-01-11T13:43:30.939Z,-0.30
2019-01-11T13:45:53.321Z,-0.30
2019-01-11T13:48:15.704Z,-0.30
2019-01-11T13:50:39.405Z,-0.30
2019-01-11T13:53:01.775Z,-0.30
2019-01-11T13:55:24.062Z,-0.30
2019-01-11T13:57:46.387Z,-0.40
2019-01-11T14:00:10.560Z,-0.40
2019-01-11T14:02:32.859Z,-0.30
2019-01-11T14:04:55.176Z,-0.30
2019-01-11T14:07:17.515Z,-0.30
2019-01-11T14:09:39.807Z,-0.30
2019-01-11T14:12:02.083Z,-0.30
2019-01-11T14:14:24.327Z,-0.30
2019-01-11T14:16:46.619Z,-0.30
2019-01-11T14:19:08.962Z,-0.30
2019-01-11T14:21:31.324Z,-0.30
2019-01-11T14:23:53.595Z,-0.40
2019-01-11T14:26:16.038Z,-0.40
2019-01-11T14:28:38.400Z,-0.40
2019-01-11T14:31:00.750Z,-0.40
2019-01-11T14:33:23.109Z,-0.40
2019-01-11T14:35:45.452Z,-0.40
2019-01-11T14:38:07.709Z,-0.40
2019-01-11T14:40:30.108Z,-0.40
2019-01-11T14:42:52.412Z,-0.40
2019-01-11T14:45:15.420Z,-0.40
2019-01-11T14:47:37.686Z,-0.40
2019-01-11T14:50:00.184Z,-0.40
2019-01-11T14:52:22.685Z,-0.40
2019-01-11T14:54:45.069Z,-0.40
2019-01-11T14:57:07.505Z,-0.40
2019-01-11T14:59:29.876Z,-0.40
2019-01-11T15:01:52.251Z,-0.40
2019-01-11T15:04:14.545Z,-0.40
2019-01-11T15:06:36.902Z,-0.40
2019-01-11T15:08:59.156Z,-0.40
2019-01-11T15:11:21.500Z,-0.40
2019-01-11T15:13:43.770Z,-0.40
2019-01-11T15:16:06.039Z,-0.40
2019-01-11T15:18:28.405Z,-0.40
2019-01-11T15:20:50.707Z,-0.40
2019-01-11T15:23:13.633Z,-0.40
2019-01-11T15:25:35.270Z,-0.40
2019-01-11T15:27:57.524Z,-0.40
2019-01-11T15:30:20.000Z,-0.40
2019-01-11T15:32:42.352Z,-0.40
2019-01-11T15:35:05.174Z,-0.40
2019-01-11T15:37:27.448Z,-0.40
2019-01-11T15:39:49.831Z,-0.40
2019-01-11T15:42:12.083Z,-0.40
2019-01-11T15:44:34.329Z,-0.40
2019-01-11T15:46:56.572Z,-0.40
2019-01-11T15:49:19.063Z,-0.40
2019-01-11T15:51:41.395Z,-0.40
2019-01-11T15:54:03.974Z,-0.40
2019-01-11T15:56:26.365Z,-0.40
2019-01-11T15:58:48.712Z,-0.40
2019-01-11T16:01:10.984Z,-0.40
2019-01-11T16:03:33.217Z,-0.40
2019-01-11T16:06:06.792Z,-0.40
2019-01-11T16:08:29.009Z,-0.40
2019-01-11T16:11:22.243Z,-0.30
2019-01-11T16:16:31.219Z,-0.30
2019-01-11T16:18:54.956Z,-0.30
2019-01-11T16:21:17.268Z,-0.40
2019-01-11T16:23:39.591Z,-0.40
2019-01-11T16:26:01.895Z,-0.40
2019-01-11T16:28:24.140Z,-0.40
2019-01-11T16:30:46.382Z,-0.30
2019-01-11T16:33:08.649Z,-0.40
2019-01-11T16:35:31.363Z,-0.40
2019-01-11T16:37:53.715Z,-0.30
2019-01-11T16:40:16.035Z,-0.30
2019-01-11T16:42:38.749Z,-0.30
2019-01-11T16:45:00.551Z,-0.30
2019-01-11T16:47:22.865Z,-0.30
2019-01-11T16:49:45.096Z,-0.30
2019-01-11T16:52:07.375Z,-0.30
2019-01-11T16:54:29.656Z,-0.30
2019-01-11T16:56:51.925Z,-0.30
2019-01-11T16:59:14.187Z,-0.30
2019-01-11T17:01:36.578Z,-0.30
2019-01-11T17:03:59.106Z,-0.30
2019-01-11T17:06:21.736Z,-0.30
2019-01-11T17:08:44.529Z,-0.30
2019-01-11T17:11:06.792Z,-0.30
2019-01-11T17:13:29.060Z,-0.30
2019-01-11T17:15:51.318Z,-0.30
2019-01-11T17:18:13.574Z,-0.30
2019-01-11T17:20:35.991Z,-0.40
2019-01-11T17:22:58.324Z,-0.30
2019-01-11T17:25:20.647Z,-0.30
2019-01-11T17:27:42.923Z,-0.30
2019-01-11T17:30:08.634Z,-0.30
2019-01-11T17:32:30.907Z,-0.30
2019-01-11T17:34:53.174Z,-0.30
2019-01-11T17:37:15.416Z,-0.30
2019-01-11T17:39:37.647Z,-0.30
2019-01-11T17:41:59.935Z,-0.30
2019-01-11T17:44:22.207Z,-0.30
2019-01-11T17:46:44.522Z,-0.30
2019-01-11T17:49:07.363Z,-0.30
2019-01-11T17:51:29.666Z,-0.30
2019-01-11T17:53:51.927Z,-0.30
2019-01-11T17:56:14.234Z,-0.30
2019-01-11T17:58:36.577Z,-0.40
2019-01-11T18:00:58.834Z,-0.40
2019-01-11T18:03:21.071Z,-0.40
2019-01-11T18:05:43.384Z,-0.40
2019-01-11T18:08:05.639Z,-0.40
2019-01-11T18:10:27.957Z,-0.40
2019-01-11T18:12:50.321Z,-0.40
2019-01-11T18:15:14.838Z,-0.40
2019-01-11T18:17:37.088Z,-0.40
2019-01-11T18:19:59.380Z,-0.30
2019-01-11T18:29:13.189Z,-0.40
2019-01-11T18:31:35.551Z,-0.40
2019-01-11T18:33:57.790Z,-0.40
2019-01-11T18:36:20.218Z,-0.40
2019-01-11T18:38:42.619Z,-0.40
2019-01-11T18:41:04.863Z,-0.40
2019-01-11T18:43:27.227Z,-0.40
2019-01-11T18:45:49.443Z,-0.40
2019-01-11T18:48:11.797Z,-0.40
2019-01-11T18:50:34.057Z,-0.40
2019-01-11T18:52:56.378Z,-0.40
2019-01-11T18:55:18.665Z,-0.40
2019-01-11T18:57:41.000Z,-0.40
2019-01-11T19:00:05.423Z,-0.40
2019-01-11T19:02:27.723Z,-0.40
2019-01-11T19:04:50.011Z,-0.50
2019-01-11T19:07:12.246Z,-0.40
2019-01-11T19:09:34.465Z,-0.50
2019-01-11T19:11:56.713Z,-0.50
2019-01-11T19:14:19.022Z,-0.50
2019-01-11T19:16:41.279Z,-0.50
2019-01-11T19:19:03.615Z,-0.50
2019-01-11T19:21:26.194Z,-0.50
2019-01-11T19:23:48.571Z,-0.50
2019-01-11T19:26:10.809Z,-0.50
2019-01-11T19:28:33.076Z,-0.50
2019-01-11T19:30:55.335Z,-0.50
2019-01-11T19:33:17.745Z,-0.50
2019-01-11T19:35:40.061Z,-0.50
2019-01-11T19:38:02.312Z,-0.50
2019-01-11T19:40:24.695Z,-0.50
2019-01-11T19:42:47.617Z,-0.50
2019-01-11T19:45:10.209Z,-0.50
2019-01-11T19:47:32.544Z,-0.50
2019-01-11T19:49:54.826Z,-0.50
2019-01-11T19:52:17.148Z,-0.50
2019-01-11T19:54:39.586Z,-0.50
2019-01-11T19:57:01.881Z,-0.50
2019-01-11T19:59:24.121Z,-0.50
2019-01-11T20:01:46.797Z,-0.50
2019-01-11T20:04:09.058Z,-0.50
2019-01-11T20:06:31.352Z,-0.50
2019-01-11T20:08:53.661Z,-0.40
2019-01-11T20:11:16.038Z,-0.50
2019-01-11T20:13:38.359Z,-0.50
2019-01-11T20:16:00.645Z,-0.50
2019-01-11T20:18:22.916Z,-0.50
2019-01-11T20:20:45.216Z,-0.50
2019-01-11T20:23:07.489Z,-0.50
2019-01-11T20:25:29.990Z,-0.50
2019-01-11T20:27:52.298Z,-0.50
2019-01-11T20:30:17.815Z,-0.50
2019-01-11T20:32:40.147Z,-0.50
2019-01-11T20:35:02.686Z,-0.50
2019-01-11T20:37:26.653Z,-0.40
2019-01-11T20:39:48.927Z,-0.40
2019-01-11T20:42:11.292Z,-0.40
2019-01-11T20:44:33.548Z,-0.40
2019-01-11T20:46:56.681Z,-0.40
2019-01-11T20:49:18.953Z,-0.40
2019-01-11T20:51:41.219Z,-0.50
2019-01-11T20:54:03.594Z,-0.50
2019-01-11T20:56:26.019Z,-0.40
2019-01-11T20:58:48.391Z,-0.50
2019-01-11T21:01:10.779Z,-0.40
2019-01-11T21:03:33.182Z,-0.50
2019-01-11T21:05:55.487Z,-0.50
2019-01-11T21:08:17.831Z,-0.50
2019-01-11T21:10:40.201Z,-0.40
2019-01-11T21:13:02.476Z,-0.50
2019-01-11T21:15:26.074Z,-0.40
2019-01-11T21:17:48.365Z,-0.40
2019-01-11T21:20:12.797Z,-0.40
2019-01-11T21:22:35.357Z,-0.40
2019-01-11T21:25:00.257Z,-0.40
2019-01-11T21:27:20.686Z,-0.40
2019-01-11T21:29:43.012Z,-0.40
2019-01-11T21:32:05.451Z,-0.40
2019-01-11T21:34:27.767Z,-0.40
2019-01-11T21:36:50.186Z,-0.40
2019-01-11T21:39:12.526Z,-0.40
2019-01-11T21:41:34.852Z,-0.40
2019-01-11T21:43:57.218Z,-0.40
2019-01-11T21:46:19.626Z,-0.40
2019-01-11T21:48:42.013Z,-0.40
2019-01-11T21:51:04.426Z,-0.40
2019-01-11T21:53:26.705Z,-0.30
2019-01-11T21:55:48.969Z,-0.30
2019-01-11T21:58:11.530Z,-0.40
2019-01-11T22:00:38.203Z,-0.40
2019-01-11T22:03:00.608Z,-0.40
2019-01-11T22:05:23.267Z,-0.40
2019-01-11T22:07:45.891Z,-0.40
2019-01-11T22:10:09.841Z,-0.30
2019-01-11T22:12:32.186Z,-0.30
2019-01-11T22:14:54.527Z,-0.30
2019-01-11T22:17:17.155Z,-0.30
2019-01-11T22:19:39.463Z,-0.30
2019-01-11T22:22:01.798Z,-0.30
2019-01-11T22:24:24.065Z,-0.30
2019-01-11T22:26:46.356Z,-0.40
2019-01-11T22:29:08.640Z,-0.30
2019-01-11T22:31:31.151Z,-0.30
2019-01-11T22:33:53.749Z,-0.30
2019-01-11T22:36:16.003Z,-0.30
2019-01-11T22:38:38.212Z,-0.30
2019-01-11T22:41:00.522Z,-0.30
2019-01-11T22:43:22.911Z,-0.30
2019-01-11T22:45:45.327Z,-0.30
2019-01-11T22:48:07.579Z,-0.30
2019-01-11T22:50:29.863Z,-0.30
2019-01-11T22:52:52.455Z,-0.20
2019-01-11T22:55:14.903Z,-0.20
2019-01-11T22:57:37.294Z,-0.20
2019-01-11T22:59:59.612Z,-0.20
2019-01-11T23:02:32.799Z,-0.20
2019-01-11T23:04:55.151Z,-0.20
2019-01-11T23:08:24.645Z,-0.20
2019-01-11T23:13:03.811Z,-0.20
2019-01-11T23:15:33.080Z,-0.10
2019-01-11T23:17:58.931Z,-0.20
2019-01-11T23:20:22.453Z,-0.20
2019-01-11T23:22:44.716Z,-0.20
2019-01-11T23:25:06.975Z,-0.20
2019-01-11T23:27:29.225Z,-0.20
2019-01-11T23:29:51.459Z,-0.20
2019-01-11T23:32:13.680Z,-0.20
2019-01-11T23:34:35.900Z,-0.10
2019-01-11T23:36:58.144Z,-0.10
2019-01-11T23:39:20.371Z,-0.10
2019-01-11T23:41:42.621Z,-0.10
2019-01-11T23:44:04.900Z,-0.10
2019-01-11T23:46:27.191Z,-0.10
2019-01-11T23:48:49.451Z,-0.10
2019-01-11T23:51:11.739Z,-0.10
2019-01-11T23:53:33.974Z,-0.10
2019-01-11T23:55:56.266Z,-0.10
2019-01-11T23:58:18.515Z,-0.10
